• Join FlightAware (Why Join?)
  • Login
  • US Flag 
04:18AM EDT


 

Airport Tracker/Info


-or-


 

Live Flight TrackerFlight Track Log ✈ AAL963 ✈ 22-Apr-2013 ✈ KDFW - SBGR / GRU

Flight Track Log - Related Links

Times and Time Zones

All times are in EDT time to prevent confusion due to time zone crossing. See the AAL963 flight status page for this flight to view local times or setup timezone preferences in your user account.

Time Position Orientation Groundspeed Altitude Reporting Facility
EDT Latitude Longitude Course Direction KTS MPH feet Rate Location/Type
09:11PM 32.8430 -97.0520 181° South 193 222 2,500  Level FlightAware
09:12PM 32.8350 -97.0520 180° South 206 237 2,500 1,200 Level FlightAware
09:12PM 32.8050 -97.0520 180° South 226 260 3,300 1,860 Climbing FlightAware
09:13PM 32.7720 -97.0530 181° South 230 265 4,400 2,160 Climbing FlightAware
09:13PM 32.7450 -97.0530 180° South 234 269 5,300 2,040 Climbing FlightAware
09:13PM 32.7120 -97.0540 181° South 243 280 6,300 1,620 Climbing FlightAware
09:14PM 32.6840 -97.0540 180° South 256 295 6,800 1,440 Climbing FlightAware
09:14PM 32.6530 -97.0550 182° South 265 305 7,500 1,560 Climbing FlightAware
09:15PM 32.6330 -97.0550 180° South 268 308 8,000 1,680 Climbing FlightAware
09:15PM 32.5980 -97.0480 170° South 284 327 8,800 2,040 Climbing FlightAware
09:16PM 32.5630 -97.0230 149° Southeast 292 336 9,900 1,620 Climbing FlightAware
09:16PM 32.5160 -96.9870 147° Southeast 317 365 10,700 1,080 Climbing FlightAware
09:17PM 32.4550 -96.9410 148° Southeast 358 412 11,500 1,380 Climbing FlightAware
09:18PM 32.3960 -96.8990 149° Southeast 374 430 12,700 1,500 Climbing FlightAware
09:18PM 32.3290 -96.8490 148° Southeast 407 468 13,700 1,740 Climbing FlightAware
09:19PM 32.2630 -96.8080 152° Southeast 411 473 15,200 2,220 Climbing FlightAware
09:20PM 32.1900 -96.7790 161° South 413 475 16,700 2,100 Climbing FlightAware
09:20PM 32.1283 -96.7557 162° South 427 491 17,700 2,040 Climbing FlightAware ADS-B
09:21PM 32.0704 -96.7341 162° South 433 498 18,800 2,100 Climbing FlightAware ADS-B
09:21PM 31.9994 -96.7072 162° South 437 503 20,100 2,040 Climbing FlightAware ADS-B
09:22PM 31.9409 -96.6850 162° South 445 512 21,100 1,860 Climbing FlightAware ADS-B
09:22PM 31.8673 -96.6570 162° South 452 520 22,200 1,800 Climbing FlightAware ADS-B
09:23PM 31.8509 -96.6504 161° South 454 522 22,500 1,920 Climbing FlightAware ADS-B
09:23PM 31.8068 -96.6321 161° South 457 526 23,200 1,980 Climbing FlightAware ADS-B
09:23PM 31.7905 -96.6252 160° South 456 525 23,500 1,860 Climbing FlightAware ADS-B
09:24PM 31.7428 -96.6053 160° South 461 531 24,200 1,740 Climbing FlightAware ADS-B
09:24PM 31.7160 -96.5942 161° South 461 531 24,600 1,800 Climbing FlightAware ADS-B
09:24PM 31.6820 -96.5803 161° South 464 534 25,100 1,500 Climbing FlightAware ADS-B
09:24PM 31.6435 -96.5646 161° South 466 536 25,500 1,380 Climbing FlightAware ADS-B
09:25PM 31.6205 -96.5552 161° South 469 540 25,800 1,380 Climbing FlightAware ADS-B
09:25PM 31.5813 -96.5393 161° South 473 544 26,200 1,320 Climbing FlightAware ADS-B
09:25PM 31.5553 -96.5287 161° South 475 547 26,500 1,380 Climbing FlightAware ADS-B
09:25PM 31.5186 -96.5138 161° South 478 550 26,900 1,380 Climbing FlightAware ADS-B
09:26PM 31.4925 -96.5035 161° South 478 550 27,200 1,680 Climbing FlightAware ADS-B
09:26PM 31.4516 -96.4882 162° South 478 550 27,800 1,560 Climbing FlightAware ADS-B
09:26PM 31.4291 -96.4800 163° South 479 551 28,000 1,140 Climbing FlightAware ADS-B
09:26PM 31.3862 -96.4642 163° South 482 555 28,400 1,140 Climbing FlightAware ADS-B
09:27PM 31.3649 -96.4564 163° South 483 556 28,600 1,380 Climbing FlightAware ADS-B
09:27PM 31.3211 -96.4402 162° South 485 558 29,100 1,200 Climbing FlightAware ADS-B
09:27PM 31.3005 -96.4325 162° South 486 559 29,200 1,200 Climbing FlightAware ADS-B
09:27PM 31.2560 -96.4159 162° South 489 563 29,700 1,320 Climbing FlightAware ADS-B
09:28PM 31.2338 -96.4076 162° South 487 560 29,900 1,020 Climbing FlightAware ADS-B
09:28PM 31.2209 -96.4027 162° South 488 562 30,000 1,200 Climbing FlightAware ADS-B
09:28PM 31.2111 -96.3984 159° South 491 565 30,100 1,980 Climbing FlightAware ADS-B
09:28PM 31.2069 -96.3963 157° South 492 566 30,200 1,200 Climbing FlightAware ADS-B
09:28PM 31.1916 -96.3874 154° Southeast 496 571 30,300 660 Climbing FlightAware ADS-B
09:28PM 31.1738 -96.3744 148° Southeast 500 575 30,400 1,200 Climbing FlightAware ADS-B
09:28PM 31.1709 -96.3721 146° Southeast 501 577 30,500 1,500 Climbing FlightAware ADS-B
09:28PM 31.1585 -96.3607 142° Southeast 504 580 30,600 720 Climbing FlightAware ADS-B
09:28PM 31.1576 -96.3598 139° Southeast 504 580 30,600 720 Level FlightAware ADS-B
09:28PM 31.1445 -96.3453 137° Southeast 508 585 30,700 1,320 Climbing FlightAware ADS-B
09:28PM 31.1411 -96.3411 133° Southeast 509 586 30,800 1,500 Climbing FlightAware ADS-B
09:28PM 31.1323 -96.3289 130° Southeast 512 589 30,900 960 Climbing FlightAware ADS-B
09:29PM 31.0982 -96.2742 126° Southeast 516 594 31,300 780 Climbing FlightAware ADS-B
09:29PM 31.0904 -96.2616 126° Southeast 516 594 31,300 660 Level FlightAware ADS-B
09:29PM 31.0732 -96.2349 127° Southeast 518 596 31,500 720 Climbing FlightAware ADS-B
09:29PM 31.0534 -96.2072 130° Southeast 519 597 31,600 720 Climbing FlightAware ADS-B
09:30PM 31.0252 -96.1704 132° Southeast 520 598 31,900 960 Climbing FlightAware ADS-B
09:30PM 31.0045 -96.1447 133° Southeast 519 597 32,100 1,200 Climbing FlightAware ADS-B
09:30PM 30.9752 -96.1093 134° Southeast 518 596 32,500 960 Climbing FlightAware ADS-B
09:30PM 30.9540 -96.0841 134° Southeast 521 600 32,600 780 Climbing FlightAware ADS-B
09:31PM 30.9238 -96.0486 135° Southeast 523 602 32,900 960 Climbing FlightAware ADS-B
09:31PM 30.9016 -96.0227 135° Southeast 523 602 33,100 960 Climbing FlightAware ADS-B
09:31PM 30.8722 -95.9886 135° Southeast 524 603 33,400 720 Climbing FlightAware ADS-B
09:31PM 30.8495 -95.9623 135° Southeast 526 605 33,500 360 Climbing FlightAware ADS-B
09:32PM 30.8198 -95.9282 135° Southeast 530 610 33,600 540 Climbing FlightAware ADS-B
09:32PM 30.7939 -95.8985 135° Southeast 533 613 33,800 540 Climbing FlightAware ADS-B
09:32PM 30.7649 -95.8652 135° Southeast 535 616 33,900 600 Climbing FlightAware ADS-B
09:32PM 30.7407 -95.8375 135° Southeast 536 617 34,100 960 Climbing FlightAware ADS-B
09:33PM 30.7113 -95.8039 135° Southeast 537 618 34,400 960 Climbing FlightAware ADS-B
09:33PM 30.6867 -95.7758 136° Southeast 538 619 34,600 720 Climbing FlightAware ADS-B
09:33PM 30.6555 -95.7401 135° Southeast 538 619 34,800 720 Climbing FlightAware ADS-B
09:33PM 30.6319 -95.7133 136° Southeast 538 619 35,000 360 Climbing FlightAware ADS-B
09:34PM 30.6019 -95.6791 136° Southeast 539 620 35,000  Level FlightAware ADS-B
09:34PM 30.5763 -95.6499 136° Southeast 539 620 35,000  Level FlightAware ADS-B
09:34PM 30.5480 -95.6177 136° Southeast 538 619 35,000  Level FlightAware ADS-B
09:34PM 30.5225 -95.5887 136° Southeast 537 618 35,000  Level FlightAware ADS-B
09:35PM 30.4940 -95.5562 135° Southeast 537 618 35,000  Level FlightAware ADS-B
09:35PM 30.4693 -95.5282 136° Southeast 536 617 35,000  Level FlightAware ADS-B
09:35PM 30.4316 -95.4854 136° Southeast 536 617 35,000  Level FlightAware ADS-B
09:36PM 30.4112 -95.4623 136° Southeast 536 617 35,000  Level FlightAware ADS-B
09:36PM 30.3776 -95.4241 136° Southeast 536 617 35,000  Level FlightAware ADS-B
09:36PM 30.3578 -95.4017 136° Southeast 536 617 35,000  Level FlightAware ADS-B
09:36PM 30.3241 -95.3635 136° Southeast 536 617 35,000  Level FlightAware ADS-B
09:37PM 30.3037 -95.3405 136° Southeast 536 617 35,000  Level FlightAware ADS-B
09:37PM 30.2707 -95.3033 136° Southeast 536 617 35,000  Level FlightAware ADS-B
09:37PM 30.2493 -95.2791 136° Southeast 536 617 35,000  Level FlightAware ADS-B
09:37PM 30.2175 -95.2432 136° Southeast 537 618 35,000  Level FlightAware ADS-B
09:38PM 30.1953 -95.2182 136° Southeast 537 618 35,000  Level FlightAware ADS-B
09:38PM 30.1639 -95.1827 136° Southeast 537 618 35,000  Level FlightAware ADS-B
09:38PM 30.1393 -95.1551 136° Southeast 537 618 35,000  Level FlightAware ADS-B
09:38PM 30.1092 -95.1212 136° Southeast 538 619 35,000  Level FlightAware ADS-B
09:39PM 30.0844 -95.0933 136° Southeast 539 620 35,000  Level FlightAware ADS-B
09:39PM 30.0545 -95.0599 136° Southeast 540 621 35,000  Level FlightAware ADS-B
09:39PM 30.0291 -95.0314 136° Southeast 540 621 35,000  Level FlightAware ADS-B
09:39PM 30.0008 -94.9996 136° Southeast 540 621 35,000  Level FlightAware ADS-B
09:40PM 29.9700 -94.9651 136° Southeast 540 621 35,000  Level FlightAware ADS-B
09:40PM 29.9467 -94.9390 136° Southeast 540 621 35,000  Level FlightAware ADS-B
09:40PM 29.9151 -94.9036 136° Southeast 541 623 35,000  Level FlightAware ADS-B
09:40PM 29.8921 -94.8780 136° Southeast 542 624 35,000  Level FlightAware ADS-B
09:41PM 29.8597 -94.8418 136° Southeast 542 624 35,000  Level FlightAware ADS-B
09:41PM 29.8376 -94.8170 136° Southeast 543 625 35,000  Level FlightAware ADS-B
09:41PM 29.8042 -94.7798 136° Southeast 544 626 35,000  Level FlightAware ADS-B
09:41PM 29.7817 -94.7547 136° Southeast 544 626 35,000  Level FlightAware ADS-B
09:42PM 29.7486 -94.7178 136° Southeast 544 626 35,000  Level FlightAware ADS-B
09:42PM 29.7262 -94.6929 136° Southeast 545 627 35,000  Level FlightAware ADS-B
09:42PM 29.6928 -94.6559 136° Southeast 545 627 35,000  Level FlightAware ADS-B
09:42PM 29.6707 -94.6314 136° Southeast 545 627 35,000  Level FlightAware ADS-B
09:43PM 29.6382 -94.5954 136° Southeast 545 627 35,000  Level FlightAware ADS-B
09:43PM 29.6153 -94.5700 136° Southeast 545 627 35,000  Level FlightAware ADS-B
09:43PM 29.5832 -94.5345 136° Southeast 545 627 35,000  Level FlightAware ADS-B
09:43PM 29.5608 -94.5098 136° Southeast 545 627 35,000  Level FlightAware ADS-B
09:44PM 29.5224 -94.4672 136° Southeast 545 627 35,000  Level FlightAware ADS-B
09:44PM 29.5042 -94.4472 136° Southeast 545 627 35,000  Level FlightAware ADS-B
09:44PM 29.4669 -94.4059 136° Southeast 544 626 35,000  Level FlightAware ADS-B
09:44PM 29.4487 -94.3859 136° Southeast 544 626 35,000  Level FlightAware ADS-B
09:45PM 29.3940 -94.3255 136° Southeast 544 626 35,000  Level FlightAware ADS-B
09:45PM 29.3371 -94.2627 136° Southeast 544 626 35,000  Level FlightAware ADS-B
09:46PM 29.2822 -94.2023 136° Southeast 543 625 35,000  Level FlightAware ADS-B
09:46PM 29.2272 -94.1416 136° Southeast 544 626 35,000  Level FlightAware ADS-B
09:47PM 29.1727 -94.0817 136° Southeast 546 628 35,000  Level FlightAware ADS-B
09:48PM 29.0970 -93.9920 134° Southeast 543 625 35,000  Level FlightAware
09:49PM 29.0360 -93.9230 135° Southeast 543 625 35,000  Level FlightAware
09:49PM 28.9760 -93.8540 135° Southeast 543 625 35,000  Level FlightAware
09:50PM 28.9150 -93.7850 135° Southeast 543 625 35,000  Level FlightAware
09:51PM 28.8400 -93.6990 135° Southeast 543 625 35,000  Level FlightAware
09:51PM 28.7790 -93.6300 135° Southeast 543 625 35,000  Level FlightAware
09:52PM 28.7190 -93.5610 135° Southeast 543 625 35,000  Level FlightAware
09:53PM 28.6590 -93.4920 135° Southeast 543 625 35,000  Level FlightAware
09:53PM 28.5980 -93.4230 135° Southeast 543 625 35,000  Level FlightAware
09:54PM 28.5230 -93.3370 135° Southeast 543 625 35,000  Level FlightAware
09:55PM 28.4620 -93.2680 135° Southeast 543 625 35,000  Level FlightAware
09:56PM 28.4020 -93.2000 135° Southeast 543 625 35,000  Level FlightAware
09:56PM 28.3410 -93.1310 135° Southeast 543 625 35,000  Level FlightAware
10:01PM 27.5811 -92.3744 144° Southeast 562 647 35,000  Level Houston Center
10:02PM 27.5321 -92.3217 138° Southeast 564 649 35,000  Level FlightAware ADS-B
10:02PM 27.4661 -92.2536 137° Southeast 565 650 35,000  Level Houston Center
10:03PM 27.3533 -92.1344 137° Southeast 559 643 35,000  Level Houston Center
10:04PM 27.2378 -92.0172 138° Southeast 559 643 35,000  Level Houston Center
10:05PM 27.0933 -91.8831 140° Southeast 561 646 35,000  Level Houston Center
10:07PM 27.0495 -91.8394 144° Southeast  Level FlightAware Approximate
10:07PM 26.9762 -91.7879 144° Southeast  Level FlightAware Approximate
10:14PM 26.2286 -91.1876 145° Southeast  Level FlightAware Approximate
10:15PM 26.1212 -91.1030 145° Southeast  Level FlightAware Approximate
10:16PM 26.0137 -91.0187 145° Southeast  Level FlightAware Approximate
10:17PM 25.9062 -90.9345 145° Southeast  Level FlightAware Approximate
10:18PM 25.7987 -90.8504 145° Southeast  Level FlightAware Approximate
10:19PM 25.6911 -90.7665 145° Southeast  Level FlightAware Approximate
10:20PM 25.5834 -90.6827 145° Southeast  Level FlightAware Approximate
10:21PM 25.4757 -90.5992 145° Southeast  Level FlightAware Approximate
10:22PM 25.3680 -90.5157 145° Southeast  Level FlightAware Approximate
10:23PM 25.2602 -90.4324 145° Southeast  Level FlightAware Approximate
10:24PM 25.1524 -90.3492 145° Southeast  Level FlightAware Approximate
10:25PM 25.0445 -90.2662 145° Southeast  Level FlightAware Approximate
10:26PM 24.9366 -90.1834 145° Southeast  Level FlightAware Approximate
10:27PM 24.8286 -90.1006 145° Southeast  Level FlightAware Approximate
10:28PM 24.7186 -90.0165 145° Southeast  Level FlightAware Approximate
10:29PM 24.6085 -89.9326 145° Southeast  Level FlightAware Approximate
10:30PM 24.4985 -89.8485 138° Southeast  Level FlightAware Approximate
10:31PM 24.3890 -89.7642 146° Southeast  Level FlightAware Approximate
10:32PM 24.2776 -89.6826 146° Southeast  Level FlightAware Approximate
10:33PM 24.1661 -89.6012 146° Southeast  Level FlightAware Approximate
10:34PM 24.0546 -89.5200 146° Southeast  Level FlightAware Approximate
10:35PM 23.9445 -89.4364 145° Southeast  Level FlightAware Approximate
10:36PM 23.8344 -89.3529 145° Southeast  Level FlightAware Approximate
10:37PM 23.7243 -89.2696 145° Southeast  Level FlightAware Approximate
10:38PM 23.6142 -89.1864 145° Southeast  Level FlightAware Approximate
10:39PM 23.5040 -89.1033 145° Southeast  Level FlightAware Approximate
10:40PM 23.3938 -89.0203 145° Southeast  Level FlightAware Approximate
10:41PM 23.2835 -88.9375 145° Southeast  Level FlightAware Approximate
10:42PM 23.1732 -88.8549 145° Southeast  Level FlightAware Approximate
10:43PM 23.0634 -88.7714 145° Southeast  Level FlightAware Approximate
10:44PM 22.9537 -88.6880 145° Southeast  Level FlightAware Approximate
10:45PM 22.8439 -88.6048 145° Southeast  Level FlightAware Approximate
10:46PM 22.7340 -88.5216 145° Southeast  Level FlightAware Approximate
10:47PM 22.6302 -88.4304 137° Southeast  Level FlightAware Approximate
10:48PM 22.5316 -88.3322 137° Southeast  Level FlightAware Approximate
10:49PM 22.4329 -88.2342 137° Southeast  Level FlightAware Approximate
10:50PM 22.3342 -88.1363 137° Southeast  Level FlightAware Approximate
10:51PM 22.2354 -88.0386 138° Southeast  Level FlightAware Approximate
10:52PM 22.1365 -87.9410 138° Southeast  Level FlightAware Approximate
10:53PM 22.0376 -87.8435 138° Southeast  Level FlightAware Approximate
10:54PM 21.9386 -87.7462 138° Southeast  Level FlightAware Approximate
10:55PM 21.8396 -87.6490 138° Southeast  Level FlightAware Approximate
10:56PM 21.7405 -87.5519 138° Southeast  Level FlightAware Approximate
10:57PM 21.6414 -87.4550 138° Southeast  Level FlightAware Approximate
10:58PM 21.5422 -87.3582 138° Southeast  Level FlightAware Approximate
10:59PM 21.4428 -87.2617 138° Southeast  Level FlightAware Approximate
11:00PM 21.3434 -87.1653 138° Southeast  Level FlightAware Approximate
11:01PM 21.2439 -87.0691 138° Southeast  Level FlightAware Approximate
11:02PM 21.1443 -86.9730 138° Southeast  Level FlightAware Approximate
11:03PM 21.0447 -86.8770 138° Southeast  Level FlightAware Approximate
11:04PM 20.9455 -86.7806 138° Southeast  Level FlightAware Approximate
11:05PM 20.8464 -86.6842 138° Southeast  Level FlightAware Approximate
11:06PM 20.7473 -86.5878 138° Southeast  Level FlightAware Approximate
11:07PM 20.6481 -86.4916 138° Southeast  Level FlightAware Approximate
11:08PM 20.5488 -86.3955 138° Southeast  Level FlightAware Approximate
11:09PM 20.4495 -86.2996 138° Southeast  Level FlightAware Approximate
11:10PM 20.3502 -86.2038 138° Southeast  Level FlightAware Approximate
11:11PM 20.2507 -86.1080 138° Southeast  Level FlightAware Approximate
11:12PM 20.1513 -86.0125 138° Southeast  Level FlightAware Approximate
11:13PM 20.0518 -85.9170 138° Southeast  Level FlightAware Approximate
11:14PM 19.9519 -85.8220 139° Southeast  Level FlightAware Approximate
11:15PM 19.8510 -85.7283 139° Southeast  Level FlightAware Approximate
11:16PM 19.7501 -85.6347 139° Southeast  Level FlightAware Approximate
11:17PM 19.6491 -85.5413 139° Southeast  Level FlightAware Approximate
11:18PM 19.5481 -85.4479 139° Southeast  Level FlightAware Approximate
11:19PM 19.4470 -85.3547 139° Southeast  Level FlightAware Approximate
11:20PM 19.3458 -85.2616 139° Southeast  Level FlightAware Approximate
11:21PM 19.2447 -85.1686 139° Southeast  Level FlightAware Approximate
11:22PM 19.1434 -85.0758 139° Southeast  Level FlightAware Approximate
11:23PM 19.0422 -84.9830 139° Southeast  Level FlightAware Approximate
11:24PM 18.9408 -84.8904 139° Southeast  Level FlightAware Approximate
11:25PM 18.8395 -84.7978 139° Southeast  Level FlightAware Approximate
11:26PM 18.7381 -84.7054 139° Southeast  Level FlightAware Approximate
11:27PM 18.6366 -84.6131 139° Southeast  Level FlightAware Approximate
11:28PM 18.5351 -84.5209 139° Southeast  Level FlightAware Approximate
11:29PM 18.4335 -84.4288 139° Southeast  Level FlightAware Approximate
11:30PM 18.3318 -84.3369 139° Southeast  Level FlightAware Approximate
11:31PM 18.2300 -84.2453 139° Southeast  Level FlightAware Approximate
11:32PM 18.1282 -84.1537 139° Southeast  Level FlightAware Approximate
11:33PM 18.0263 -84.0623 140° Southeast  Level FlightAware Approximate
11:34PM 17.9243 -83.9709 140° Southeast  Level FlightAware Approximate
11:35PM 17.8223 -83.8797 140° Southeast  Level FlightAware Approximate
11:36PM 17.7203 -83.7886 140° Southeast  Level FlightAware Approximate
11:37PM 17.6182 -83.6976 140° Southeast  Level FlightAware Approximate
11:38PM 17.5161 -83.6067 140° Southeast  Level FlightAware Approximate
11:39PM 17.4139 -83.5158 140° Southeast  Level FlightAware Approximate
11:40PM 17.3118 -83.4251 140° Southeast  Level FlightAware Approximate
11:41PM 17.2095 -83.3345 140° Southeast  Level FlightAware Approximate
11:42PM 17.1072 -83.2440 140° Southeast  Level FlightAware Approximate
11:43PM 17.0049 -83.1536 140° Southeast  Level FlightAware Approximate
11:44PM 16.9025 -83.0633 140° Southeast  Level FlightAware Approximate
11:45PM 16.8001 -82.9731 140° Southeast  Level FlightAware Approximate
11:46PM 16.6977 -82.8829 140° Southeast  Level FlightAware Approximate
11:47PM 16.5952 -82.7929 140° Southeast  Level FlightAware Approximate
11:48PM 16.4927 -82.7030 140° Southeast  Level FlightAware Approximate
11:49PM 16.3902 -82.6132 140° Southeast  Level FlightAware Approximate
11:50PM 16.2876 -82.5234 140° Southeast  Level FlightAware Approximate
11:51PM 16.1850 -82.4338 140° Southeast  Level FlightAware Approximate
11:52PM 16.0823 -82.3442 140° Southeast  Level FlightAware Approximate
11:53PM 15.9796 -82.2548 140° Southeast  Level FlightAware Approximate
11:54PM 15.8770 -82.1652 140° Southeast  Level FlightAware Approximate
11:55PM 15.7746 -82.0754 140° Southeast  Level FlightAware Approximate
11:56PM 15.6722 -81.9857 140° Southeast  Level FlightAware Approximate
11:57PM 15.5698 -81.8961 140° Southeast  Level FlightAware Approximate
11:58PM 15.4673 -81.8066 140° Southeast  Level FlightAware Approximate
11:59PM 15.3648 -81.7172 140° Southeast  Level FlightAware Approximate
12:00AM 15.2622 -81.6279 140° Southeast  Level FlightAware Approximate
12:01AM 15.1596 -81.5386 140° Southeast  Level FlightAware Approximate
12:02AM 15.0570 -81.4495 140° Southeast  Level FlightAware Approximate
12:03AM 14.9542 -81.3606 140° Southeast  Level FlightAware Approximate
12:04AM 14.8511 -81.2721 140° Southeast  Level FlightAware Approximate
12:05AM 14.7480 -81.1837 140° Southeast  Level FlightAware Approximate
12:06AM 14.6448 -81.0954 140° Southeast  Level FlightAware Approximate
12:07AM 14.5417 -81.0071 140° Southeast  Level FlightAware Approximate
12:08AM 14.4384 -80.9190 140° Southeast  Level FlightAware Approximate
12:09AM 14.3352 -80.8309 140° Southeast  Level FlightAware Approximate
12:10AM 14.2319 -80.7429 140° Southeast  Level FlightAware Approximate
12:11AM 14.1286 -80.6550 140° Southeast  Level FlightAware Approximate
12:12AM 14.0253 -80.5671 140° Southeast  Level FlightAware Approximate
12:13AM 13.9219 -80.4794 141° Southeast  Level FlightAware Approximate
12:14AM 13.8185 -80.3917 141° Southeast  Level FlightAware Approximate
12:15AM 13.7150 -80.3041 141° Southeast  Level FlightAware Approximate
12:16AM 13.6116 -80.2165 141° Southeast  Level FlightAware Approximate
12:17AM 13.5081 -80.1291 141° Southeast  Level FlightAware Approximate
12:18AM 13.4045 -80.0417 141° Southeast  Level FlightAware Approximate
12:19AM 13.3010 -79.9544 141° Southeast  Level FlightAware Approximate
12:20AM 13.1974 -79.8672 141° Southeast  Level FlightAware Approximate
12:21AM 13.0938 -79.7800 141° Southeast  Level FlightAware Approximate
12:22AM 12.9901 -79.6929 141° Southeast  Level FlightAware Approximate
12:23AM 12.8864 -79.6059 141° Southeast  Level FlightAware Approximate
12:24AM 12.7827 -79.5190 141° Southeast  Level FlightAware Approximate
12:25AM 12.6790 -79.4321 141° Southeast  Level FlightAware Approximate
12:26AM 12.5752 -79.3453 141° Southeast  Level FlightAware Approximate
12:27AM 12.4714 -79.2586 141° Southeast  Level FlightAware Approximate
12:28AM 12.3676 -79.1720 141° Southeast  Level FlightAware Approximate
12:28AM 11.4750 -77.8160 141° Southeast 469 540 37,000  Level FlightAware
12:29AM 12.2638 -79.0854 141° Southeast  Level FlightAware Approximate
12:29AM 11.3960 -77.7550 143° Southeast 469 540 37,000  Level FlightAware
12:30AM 11.3400 -77.7110 142° Southeast 469 540 37,000  Level FlightAware
12:31AM 11.2450 -77.6370 143° Southeast 469 540 37,000  Level FlightAware
12:31AM 11.1860 -77.5900 142° Southeast 469 540 37,000  Level FlightAware
12:32AM 11.0950 -77.5220 144° Southeast 471 542 37,000  Level FlightAware
12:33AM 11.0270 -77.4670 142° Southeast 471 542 37,000  Level FlightAware
12:35AM 10.8454 -77.3055 139° Southeast  Level Estimated
12:35AM 10.7970 -77.2660 139° Southeast 485 558 37,000  Level FlightAware
12:36AM 10.7310 -77.2030 137° Southeast 486 559 37,000  Level FlightAware
12:36AM 10.6750 -77.1500 137° Southeast 486 559 37,000  Level FlightAware
12:37AM 10.6000 -77.0820 138° Southeast 482 555 37,000  Level FlightAware
12:38AM 10.5270 -77.0140 138° Southeast 483 556 37,000  Level FlightAware
12:38AM 10.4490 -76.9420 138° Southeast 483 556 37,000  Level FlightAware
12:39AM 10.3630 -76.8620 138° Southeast 486 559 37,000  Level FlightAware
12:40AM 10.2860 -76.7900 137° Southeast 485 558 37,000  Level FlightAware
12:41AM 10.2140 -76.7230 138° Southeast 484 557 37,000  Level FlightAware
12:41AM 10.1550 -76.6690 138° Southeast 483 556 37,000  Level FlightAware
12:42AM 10.0800 -76.5990 137° Southeast 481 554 37,000  Level FlightAware
12:43AM 9.9800 -76.5060 138° Southeast 480 552 37,000  Level FlightAware
12:44AM 9.9170 -76.4480 138° Southeast 479 551 37,000  Level FlightAware
12:44AM 9.8450 -76.3810 137° Southeast 478 550 37,000  Level FlightAware
12:45AM 9.7770 -76.3180 138° Southeast 475 547 37,000  Level FlightAware
12:46AM 9.7190 -76.2650 138° Southeast 469 540 37,000  Level FlightAware
12:46AM 9.6590 -76.2100 138° Southeast 475 547 37,000  Level FlightAware
12:47AM 9.5960 -76.1500 137° Southeast 475 547 37,000  Level FlightAware
12:48AM 9.5420 -76.0990 137° Southeast 475 547 37,000  Level FlightAware
12:49AM 9.4730 -76.0340 137° Southeast 475 547 37,000  Level FlightAware
12:49AM 9.4190 -75.9830 137° Southeast 475 547 37,000  Level FlightAware
12:50AM 9.3640 -75.9310 137° Southeast 475 547 37,000  Level FlightAware
12:51AM 9.3090 -75.8790 137° Southeast 475 547 37,000  Level FlightAware
12:51AM 9.2410 -75.8150 137° Southeast 475 547 37,000  Level FlightAware
12:52AM 9.1870 -75.7630 136° Southeast 475 547 37,000  Level FlightAware
12:53AM 9.1320 -75.7120 138° Southeast 475 547 37,000  Level FlightAware
12:53AM 9.0770 -75.6600 137° Southeast 475 547 37,000  Level FlightAware
12:54AM 9.0230 -75.6080 136° Southeast 475 547 37,000  Level FlightAware
12:55AM 8.9540 -75.5440 138° Southeast 475 547 37,000  Level FlightAware
12:56AM 8.9000 -75.4920 136° Southeast 475 547 37,000  Level FlightAware
12:56AM 8.8450 -75.4410 138° Southeast 475 547 37,000  Level FlightAware
12:59AM 8.6207 -75.2458 139° Southeast  Level Estimated
01:00AM 8.5195 -75.1578 139° Southeast  Level Estimated
01:01AM 8.4183 -75.0699 139° Southeast  Level Estimated
01:02AM 8.3170 -74.9820 139° Southeast  Level Estimated
01:03AM 8.2158 -74.8942 139° Southeast  Level Estimated
01:04AM 8.1145 -74.8064 139° Southeast  Level Estimated
01:05AM 8.0132 -74.7186 139° Southeast  Level Estimated
01:06AM 7.9118 -74.6309 139° Southeast  Level Estimated
01:07AM 7.8105 -74.5432 139° Southeast  Level Estimated
01:08AM 7.7091 -74.4556 139° Southeast  Level Estimated
01:09AM 7.6078 -74.3680 139° Southeast  Level Estimated
01:10AM 7.5064 -74.2805 139° Southeast  Level Estimated
01:11AM 7.4050 -74.1930 139° Southeast  Level Estimated
01:12AM 7.3035 -74.1055 139° Southeast  Level Estimated
01:13AM 7.2021 -74.0181 139° Southeast  Level Estimated
01:14AM 7.1006 -73.9307 139° Southeast  Level Estimated
01:15AM 6.9991 -73.8434 139° Southeast  Level Estimated
01:16AM 6.8976 -73.7561 140° Southeast  Level Estimated
01:17AM 6.7961 -73.6688 140° Southeast  Level Estimated
01:18AM 6.6946 -73.5816 140° Southeast  Level Estimated
01:19AM 6.5931 -73.4944 140° Southeast  Level Estimated
01:20AM 6.4915 -73.4072 140° Southeast  Level Estimated
01:21AM 6.3899 -73.3201 140° Southeast  Level Estimated
01:22AM 6.2883 -73.2330 140° Southeast  Level Estimated
01:23AM 6.1867 -73.1460 140° Southeast  Level Estimated
01:24AM 6.0851 -73.0590 140° Southeast  Level Estimated
01:25AM 5.9835 -72.9720 140° Southeast  Level Estimated
01:26AM 5.8818 -72.8850 140° Southeast  Level Estimated
01:27AM 5.7802 -72.7981 140° Southeast  Level Estimated
01:28AM 5.6785 -72.7112 140° Southeast  Level Estimated
01:29AM 5.5768 -72.6243 140° Southeast  Level Estimated
01:30AM 5.4751 -72.5375 140° Southeast  Level Estimated
01:31AM 5.3734 -72.4507 140° Southeast  Level Estimated
01:32AM 5.2717 -72.3639 140° Southeast  Level Estimated
01:33AM 5.1700 -72.2772 140° Southeast  Level Estimated
01:34AM 5.0682 -72.1905 140° Southeast  Level Estimated
01:35AM 4.9665 -72.1038 140° Southeast  Level Estimated
01:36AM 4.8647 -72.0171 140° Southeast  Level Estimated
01:37AM 4.7629 -71.9305 140° Southeast  Level Estimated
01:38AM 4.6611 -71.8439 140° Southeast  Level Estimated
01:39AM 4.5593 -71.7573 140° Southeast  Level Estimated
01:40AM 4.4575 -71.6707 140° Southeast  Level Estimated
01:41AM 4.3557 -71.5842 140° Southeast  Level Estimated
01:42AM 4.2539 -71.4977 140° Southeast  Level Estimated
01:43AM 4.1524 -71.4115 140° Southeast  Level Estimated
01:44AM 4.0509 -71.3253 140° Southeast  Level Estimated
01:45AM 3.9494 -71.2392 140° Southeast  Level Estimated
01:46AM 3.8479 -71.1531 140° Southeast  Level Estimated
01:47AM 3.7464 -71.0670 140° Southeast  Level Estimated
01:48AM 3.6449 -70.9809 140° Southeast  Level Estimated
01:49AM 3.5434 -70.8948 140° Southeast  Level Estimated
01:50AM 3.4418 -70.8088 140° Southeast  Level Estimated
01:51AM 3.3403 -70.7228 140° Southeast  Level Estimated
01:52AM 3.2387 -70.6368 140° Southeast  Level Estimated
01:53AM 3.1372 -70.5508 140° Southeast  Level Estimated
01:54AM 3.0356 -70.4648 140° Southeast  Level Estimated
01:55AM 2.9340 -70.3789 140° Southeast  Level Estimated
01:56AM 2.8324 -70.2929 140° Southeast  Level Estimated
01:57AM 2.7309 -70.2070 140° Southeast  Level Estimated
01:58AM 2.6293 -70.1211 140° Southeast  Level Estimated
01:59AM 2.5277 -70.0352 140° Southeast  Level Estimated
02:00AM 2.4261 -69.9493 140° Southeast  Level Estimated
02:01AM 2.3245 -69.8634 140° Southeast  Level Estimated
02:02AM 2.2229 -69.7776 140° Southeast  Level Estimated
02:03AM 2.1212 -69.6917 140° Southeast  Level Estimated
02:04AM 2.0196 -69.6059 140° Southeast  Level Estimated
02:05AM 1.9180 -69.5201 140° Southeast  Level Estimated
02:06AM 1.8163 -69.4343 140° Southeast  Level Estimated
02:07AM 1.7147 -69.3485 140° Southeast  Level Estimated
02:08AM 1.6131 -69.2627 140° Southeast  Level Estimated
02:09AM 1.5116 -69.1771 140° Southeast  Level Estimated
02:10AM 1.4101 -69.0914 140° Southeast  Level Estimated
02:11AM 1.3087 -69.0058 140° Southeast  Level Estimated
02:12AM 1.2072 -68.9202 140° Southeast  Level Estimated
02:13AM 1.1057 -68.8346 140° Southeast  Level Estimated
02:14AM 1.0042 -68.7490 140° Southeast  Level Estimated
02:15AM 0.9028 -68.6634 140° Southeast  Level Estimated
02:16AM 0.8013 -68.5778 140° Southeast  Level Estimated
02:17AM 0.6998 -68.4922 140° Southeast  Level Estimated
02:18AM 0.5983 -68.4067 140° Southeast  Level Estimated
02:19AM 0.4968 -68.3211 140° Southeast  Level Estimated
02:20AM 0.3953 -68.2355 140° Southeast  Level Estimated
02:21AM 0.2938 -68.1499 140° Southeast  Level Estimated
02:22AM 0.1924 -68.0644 140° Southeast  Level Estimated
02:23AM 0.0909 -67.9788 140° Southeast  Level Estimated
02:24AM -0.0106 -67.8932 140° Southeast  Level Estimated
02:25AM -0.1121 -67.8077 140° Southeast  Level Estimated
02:26AM -0.2136 -67.7221 140° Southeast  Level Estimated
02:27AM -0.3151 -67.6365 140° Southeast  Level Estimated
02:28AM -0.4166 -67.5510 140° Southeast  Level Estimated
02:29AM -0.5181 -67.4654 140° Southeast  Level Estimated
02:30AM -0.6196 -67.3798 140° Southeast  Level Estimated
02:31AM -0.7211 -67.2942 140° Southeast  Level Estimated
02:32AM -0.8225 -67.2086 140° Southeast  Level Estimated
02:33AM -0.9240 -67.1231 140° Southeast  Level Estimated
02:34AM -1.0255 -67.0375 140° Southeast  Level Estimated
02:35AM -1.1270 -66.9519 140° Southeast  Level Estimated
02:36AM -1.2284 -66.8663 140° Southeast  Level Estimated
02:37AM -1.3299 -66.7807 140° Southeast  Level Estimated
02:38AM -1.4314 -66.6950 140° Southeast  Level Estimated
02:39AM -1.5329 -66.6094 140° Southeast  Level Estimated
02:40AM -1.6343 -66.5238 140° Southeast  Level Estimated
02:41AM -1.7358 -66.4381 140° Southeast  Level Estimated
02:42AM -1.8372 -66.3525 140° Southeast  Level Estimated
02:43AM -1.9387 -66.2668 140° Southeast  Level Estimated
02:44AM -2.0401 -66.1812 140° Southeast  Level Estimated
02:45AM -2.1416 -66.0955 140° Southeast  Level Estimated
02:46AM -2.2430 -66.0098 140° Southeast  Level Estimated
02:47AM -2.3444 -65.9241 140° Southeast  Level Estimated
02:48AM -2.4459 -65.8384 140° Southeast  Level Estimated
02:49AM -2.5473 -65.7526 140° Southeast  Level Estimated
02:50AM -2.6487 -65.6669 140° Southeast  Level Estimated
02:51AM -2.7501 -65.5811 140° Southeast  Level Estimated
02:52AM -2.8515 -65.4954 140° Southeast  Level Estimated
02:53AM -2.9529 -65.4096 140° Southeast  Level Estimated
02:54AM -3.0543 -65.3238 140° Southeast  Level Estimated
02:55AM -3.1557 -65.2380 140° Southeast  Level Estimated
02:56AM -3.2571 -65.1521 140° Southeast  Level Estimated
02:57AM -3.3584 -65.0663 140° Southeast  Level Estimated
02:58AM -3.4598 -64.9804 140° Southeast  Level Estimated
02:59AM -3.5611 -64.8945 140° Southeast  Level Estimated
03:00AM -3.6625 -64.8086 140° Southeast  Level Estimated
03:01AM -3.7638 -64.7227 140° Southeast  Level Estimated
03:02AM -3.8652 -64.6367 140° Southeast  Level Estimated
03:03AM -3.9665 -64.5508 140° Southeast  Level Estimated
03:04AM -4.0678 -64.4648 140° Southeast  Level Estimated
03:05AM -4.1691 -64.3788 140° Southeast  Level Estimated
03:06AM -4.2704 -64.2927 140° Southeast  Level Estimated
03:07AM -4.3717 -64.2067 140° Southeast  Level Estimated
03:08AM -4.4729 -64.1206 140° Southeast  Level Estimated
03:09AM -4.5742 -64.0345 140° Southeast  Level Estimated
03:10AM -4.6754 -63.9484 140° Southeast  Level Estimated
03:11AM -4.7767 -63.8622 140° Southeast  Level Estimated
03:12AM -4.8779 -63.7760 140° Southeast  Level Estimated
03:13AM -4.9791 -63.6898 140° Southeast  Level Estimated
03:14AM -5.0803 -63.6036 140° Southeast  Level Estimated
03:15AM -5.1815 -63.5173 140° Southeast  Level Estimated
03:16AM -5.2827 -63.4311 140° Southeast  Level Estimated
03:17AM -5.3839 -63.3447 140° Southeast  Level Estimated
03:18AM -5.4851 -63.2584 140° Southeast  Level Estimated
03:19AM -5.5862 -63.1720 140° Southeast  Level Estimated
03:20AM -5.6874 -63.0856 140° Southeast  Level Estimated
03:21AM -5.7885 -62.9992 140° Southeast  Level Estimated
03:22AM -5.8896 -62.9128 140° Southeast  Level Estimated
03:23AM -5.9907 -62.8263 140° Southeast  Level Estimated
03:24AM -6.0918 -62.7397 140° Southeast  Level Estimated
03:25AM -6.1929 -62.6532 140° Southeast  Level Estimated
03:26AM -6.2939 -62.5666 140° Southeast  Level Estimated
03:27AM -6.3949 -62.4799 140° Southeast  Level Estimated
03:28AM -6.4960 -62.3933 140° Southeast  Level Estimated
03:29AM -6.5970 -62.3066 140° Southeast  Level Estimated
03:30AM -6.6980 -62.2199 140° Southeast  Level Estimated
03:31AM -6.7990 -62.1331 140° Southeast  Level Estimated
03:32AM -6.8999 -62.0463 140° Southeast  Level Estimated
03:33AM -7.0009 -61.9595 140° Southeast  Level Estimated
03:34AM -7.1018 -61.8726 140° Southeast  Level Estimated
03:35AM -7.2028 -61.7857 139° Southeast  Level Estimated
03:36AM -7.3036 -61.6987 139° Southeast  Level Estimated
03:37AM -7.4045 -61.6117 139° Southeast  Level Estimated
03:38AM -7.5054 -61.5247 139° Southeast  Level Estimated
03:39AM -7.6057 -61.4381 139° Southeast  Level Estimated
03:40AM -7.7060 -61.3514 139° Southeast  Level Estimated
03:41AM -7.8063 -61.2648 139° Southeast  Level Estimated
03:42AM -7.9066 -61.1780 139° Southeast  Level Estimated
03:43AM -8.0068 -61.0912 139° Southeast  Level Estimated
03:44AM -8.1070 -61.0044 139° Southeast  Level Estimated
03:45AM -8.2073 -60.9176 139° Southeast  Level Estimated
03:46AM -8.3075 -60.8307 139° Southeast  Level Estimated
03:47AM -8.4076 -60.7437 139° Southeast  Level Estimated
03:48AM -8.5078 -60.6567 139° Southeast  Level Estimated
03:49AM -8.6079 -60.5697 139° Southeast  Level Estimated
03:50AM -8.7080 -60.4826 139° Southeast  Level Estimated
03:51AM -8.8081 -60.3955 139° Southeast  Level Estimated
03:52AM -8.9082 -60.3083 139° Southeast  Level Estimated
03:53AM -9.0082 -60.2211 139° Southeast  Level Estimated
03:54AM -9.1082 -60.1338 139° Southeast  Level Estimated
03:55AM -9.2083 -60.0465 139° Southeast  Level Estimated
03:56AM -9.3083 -59.9591 139° Southeast  Level Estimated
03:57AM -9.4082 -59.8717 139° Southeast  Level Estimated
03:58AM -9.5082 -59.7842 139° Southeast  Level Estimated
03:59AM -9.6081 -59.6967 139° Southeast  Level Estimated
04:00AM -9.7080 -59.6091 139° Southeast  Level Estimated
04:01AM -9.8079 -59.5215 139° Southeast  Level Estimated
04:02AM -9.9078 -59.4338 139° Southeast  Level Estimated
04:03AM -10.0076 -59.3460 139° Southeast  Level Estimated
04:04AM -10.1074 -59.2582 139° Southeast  Level Estimated
04:05AM -10.2072 -59.1704 139° Southeast  Level Estimated
04:06AM -10.3070 -59.0825 139° Southeast  Level Estimated
04:07AM -10.4067 -58.9945 139° Southeast  Level Estimated
04:08AM -10.5064 -58.9065 139° Southeast  Level Estimated
04:09AM -10.6061 -58.8185 139° Southeast  Level Estimated
04:10AM -10.7058 -58.7303 139° Southeast  Level Estimated
04:11AM -10.8055 -58.6422 139° Southeast  Level Estimated
04:12AM -10.9051 -58.5539 139° Southeast  Level Estimated
04:13AM -11.0047 -58.4656 139° Southeast  Level Estimated
04:14AM -11.1042 -58.3773 139° Southeast  Level Estimated
04:15AM -11.2038 -58.2888 139° Southeast  Level Estimated
04:16AM -11.3033 -58.2004 139° Southeast  Level Estimated
04:17AM -11.4028 -58.1118 139° Southeast  Level Estimated
04:18AM -11.5023 -58.0232 139° Southeast  Level Estimated
04:19AM -11.6017 -57.9345 139° Southeast  Level Estimated
04:20AM -11.7011 -57.8458 139° Southeast  Level Estimated
04:21AM -11.8005 -57.7570 139° Southeast  Level Estimated
04:22AM -11.8999 -57.6682 139° Southeast  Level Estimated
04:23AM -11.9992 -57.5792 139° Southeast  Level Estimated
04:24AM -12.0985 -57.4902 139° Southeast  Level Estimated
04:25AM -12.1978 -57.4012 139° Southeast  Level Estimated
04:26AM -12.2970 -57.3121 139° Southeast  Level Estimated
04:27AM -12.3962 -57.2229 139° Southeast  Level Estimated
04:28AM -12.4954 -57.1336 139° Southeast  Level Estimated
04:29AM -12.5946 -57.0443 139° Southeast  Level Estimated
04:30AM -12.6937 -56.9549 139° Southeast  Level Estimated
04:31AM -12.7928 -56.8654 139° Southeast  Level Estimated
04:32AM -12.8919 -56.7759 139° Southeast  Level Estimated
04:33AM -12.9909 -56.6863 139° Southeast  Level Estimated
04:34AM -13.0899 -56.5966 139° Southeast  Level Estimated
04:35AM -13.1889 -56.5068 139° Southeast  Level Estimated
04:36AM -13.2879 -56.4170 139° Southeast  Level Estimated
04:37AM -13.3868 -56.3271 139° Southeast  Level Estimated
04:38AM -13.4856 -56.2371 139° Southeast  Level Estimated
04:39AM -13.5845 -56.1471 138° Southeast  Level Estimated
04:40AM -13.6833 -56.0570 138° Southeast  Level Estimated
04:41AM -13.7821 -55.9668 138° Southeast  Level Estimated
04:42AM -13.8808 -55.8765 138° Southeast  Level Estimated
04:43AM -13.9796 -55.7862 138° Southeast  Level Estimated
04:44AM -14.0782 -55.6957 138° Southeast  Level Estimated
04:45AM -14.1769 -55.6052 138° Southeast  Level Estimated
04:46AM -14.2755 -55.5146 138° Southeast  Level Estimated
04:47AM -14.3741 -55.4240 138° Southeast  Level Estimated
04:48AM -14.4726 -55.3332 138° Southeast  Level Estimated
04:49AM -14.5711 -55.2424 138° Southeast  Level Estimated
04:50AM -14.6696 -55.1515 138° Southeast  Level Estimated
04:51AM -14.7681 -55.0605 138° Southeast  Level Estimated
04:52AM -14.8665 -54.9695 138° Southeast  Level Estimated
04:53AM -14.9649 -54.8783 138° Southeast  Level Estimated
04:54AM -15.0632 -54.7871 138° Southeast  Level Estimated
04:55AM -15.1615 -54.6958 138° Southeast  Level Estimated
04:56AM -15.2598 -54.6044 138° Southeast  Level Estimated
04:57AM -15.3580 -54.5129 138° Southeast  Level Estimated
04:58AM -15.4562 -54.4213 138° Southeast  Level Estimated
04:59AM -15.5543 -54.3296 138° Southeast  Level Estimated
05:00AM -15.6524 -54.2379 138° Southeast  Level Estimated
05:01AM -15.7505 -54.1460 138° Southeast  Level Estimated
05:02AM -15.8485 -54.0541 138° Southeast  Level Estimated
05:03AM -15.9465 -53.9621 138° Southeast  Level Estimated
05:04AM -16.0445 -53.8700 138° Southeast  Level Estimated
05:05AM -16.1424 -53.7778 138° Southeast  Level Estimated
05:06AM -16.2403 -53.6855 138° Southeast  Level Estimated
05:07AM -16.3381 -53.5931 138° Southeast  Level Estimated
05:08AM -16.4359 -53.5006 138° Southeast  Level Estimated
05:09AM -16.5337 -53.4081 138° Southeast  Level Estimated
05:10AM -16.6314 -53.3154 138° Southeast  Level Estimated
05:11AM -16.7291 -53.2227 138° Southeast  Level Estimated
05:12AM -16.8267 -53.1298 138° Southeast  Level Estimated
05:13AM -16.9243 -53.0369 138° Southeast  Level Estimated
05:14AM -17.0219 -52.9438 138° Southeast  Level Estimated
05:15AM -17.1194 -52.8507 138° Southeast  Level Estimated
05:16AM -17.2170 -52.7573 138° Southeast  Level Estimated
05:17AM -17.3146 -52.6638 138° Southeast  Level Estimated
05:18AM -17.4122 -52.5702 138° Southeast  Level Estimated
05:19AM -17.5097 -52.4765 138° Southeast  Level Estimated
05:20AM -17.6071 -52.3827 137° Southeast  Level Estimated
05:21AM -17.7045 -52.2888 137° Southeast  Level Estimated
05:22AM -17.8019 -52.1948 137° Southeast  Level Estimated
05:23AM -17.8993 -52.1007 137° Southeast  Level Estimated
05:24AM -17.9965 -52.0065 137° Southeast  Level Estimated
05:25AM -18.0938 -51.9122 137° Southeast  Level Estimated
05:26AM -18.1910 -51.8177 137° Southeast  Level Estimated
05:27AM -18.2881 -51.7232 137° Southeast  Level Estimated
05:28AM -18.3852 -51.6286 137° Southeast  Level Estimated
05:29AM -18.4823 -51.5339 137° Southeast  Level Estimated
05:30AM -18.5793 -51.4390 137° Southeast  Level Estimated
05:31AM -18.6762 -51.3441 137° Southeast  Level Estimated
05:32AM -18.7731 -51.2490 137° Southeast  Level Estimated
05:33AM -18.8700 -51.1538 137° Southeast  Level Estimated
05:34AM -18.9668 -51.0586 137° Southeast  Level Estimated
05:35AM -19.0636 -50.9632 137° Southeast  Level Estimated
05:36AM -19.1603 -50.8677 137° Southeast  Level Estimated
05:37AM -19.2570 -50.7720 137° Southeast  Level Estimated
05:38AM -19.3536 -50.6763 137° Southeast  Level Estimated
05:39AM -19.4502 -50.5805 137° Southeast  Level Estimated
05:39AM -19.2920 -50.3500 137° Southeast 531 611 39,000  Level FlightAware
05:40AM -19.5467 -50.4845 137° Southeast  Level Estimated
05:40AM -19.3690 -50.2670 135° Southeast 530 610 39,000  Level FlightAware
05:40AM -19.4400 -50.1890 134° Southeast 529 609 39,000  Level FlightAware
05:41AM -19.5200 -50.1010 134° Southeast 527 606 39,000  Level FlightAware
05:42AM -19.5940 -50.0190 134° Southeast 526 605 39,000  Level FlightAware
05:43AM -19.6620 -49.9450 134° Southeast 526 605 39,000  Level FlightAware
05:43AM -19.7400 -49.8600 134° Southeast 524 603 39,000  Level FlightAware
05:44AM -19.8020 -49.7910 134° Southeast 521 600 39,000  Level FlightAware
05:45AM -19.8730 -49.7140 134° Southeast 521 600 39,000  Level FlightAware
05:45AM -19.9330 -49.6480 134° Southeast 521 600 39,000  Level FlightAware
05:46AM -20.0150 -49.5590 134° Southeast 521 600 39,000  Level FlightAware
05:47AM -20.0910 -49.4750 134° Southeast 521 600 39,000  Level FlightAware
05:48AM -20.1590 -49.4000 134° Southeast 521 600 39,000  Level FlightAware
05:48AM -20.2240 -49.3290 134° Southeast 521 600 39,000  Level FlightAware
05:49AM -20.2950 -49.2500 134° Southeast 522 601 39,000  Level FlightAware
05:50AM -20.3870 -49.1490 134° Southeast 522 601 39,000  Level FlightAware
05:51AM -20.4560 -49.0720 134° Southeast 522 601 39,000  Level FlightAware
05:51AM -20.5360 -48.9830 134° Southeast 522 601 39,000  Level FlightAware
05:52AM -20.6030 -48.9090 134° Southeast 522 601 39,000  Level FlightAware
05:53AM -20.6700 -48.8350 134° Southeast 522 601 39,000  Level FlightAware
05:53AM -20.7370 -48.7600 134° Southeast 522 601 39,000  Level FlightAware
05:54AM -20.8050 -48.6830 133° Southeast 522 601 39,000  Level FlightAware
05:55AM -20.8840 -48.5950 134° Southeast 520 598 39,000  Level FlightAware
05:55AM -20.9510 -48.5190 133° Southeast 520 598 39,000  Level FlightAware
05:56AM -21.0040 -48.4600 134° Southeast 519 597 39,000  Level FlightAware
05:57AM -21.0700 -48.3860 134° Southeast 519 597 39,000  Level FlightAware
05:58AM -21.1560 -48.2880 133° Southeast 520 598 39,000  Level FlightAware
05:58AM -21.2310 -48.2040 134° Southeast 520 598 39,000  Level FlightAware
05:59AM -21.2950 -48.1300 133° Southeast 520 598 39,000 -240 Level FlightAware
06:00AM -21.3510 -48.0670 134° Southeast 513 590 38,700 -1,140 Descending FlightAware
06:00AM -21.4380 -47.9690 134° Southeast 500 575 37,400 -1,620 Descending FlightAware
06:01AM -21.5090 -47.8890 134° Southeast 493 567 36,300 -1,500 Descending FlightAware
06:02AM -21.5690 -47.8200 133° Southeast 487 560 35,300 -1,620 Descending FlightAware
06:02AM -21.6320 -47.7490 134° Southeast 480 552 34,200 -1,680 Descending FlightAware
06:03AM -21.7000 -47.6710 133° Southeast 470 541 33,000 -1,740 Descending FlightAware
06:04AM -21.7600 -47.6020 133° Southeast 463 533 31,800 -1,500 Descending FlightAware
06:05AM -21.8170 -47.5370 133° Southeast 447 514 31,000 -1,380 Descending FlightAware
06:05AM -21.8770 -47.4660 132° Southeast 435 501 29,900 -2,160 Descending FlightAware
06:06AM -21.9320 -47.3970 131° Southeast 447 514 28,000 -2,580 Descending FlightAware
06:07AM -21.9830 -47.3310 130° Southeast 446 513 26,500 -1,440 Descending FlightAware
06:07AM -22.0400 -47.2600 131° Southeast 438 504 26,000 -300 Descending FlightAware
06:08AM -22.1370 -47.2070 153° Southeast 430 495 26,000  Level FlightAware
06:10AM -22.2850 -47.1710 167° South 429 494 26,000 -1,200 Level FlightAware
06:11AM -22.4330 -47.1340 167° South 431 496 23,100 -2,280 Descending FlightAware
06:12AM -22.5780 -47.0950 166° South 419 482 20,400 -2,100 Descending FlightAware
06:14AM -22.8300 -46.9910 146° Southeast 382 440 15,500 -1,560 Descending FlightAware
06:15AM -22.8488 -46.8977 146° Southeast  Level Estimated
06:16AM -22.9390 -46.9460 159° South 329 379 14,900  Level FlightAware
06:17AM -23.0380 -46.9040 159° South 291 335 11,800 -2,280 Descending FlightAware
06:18AM -23.1260 -46.8670 159° South 244 281 9,300 -1,860 Descending FlightAware
06:19AM -23.1530 -46.8560 159° South 245 282 8,700 -1,200 Descending FlightAware
06:19AM -23.1860 -46.8420 159° South 242 278 8,200 -780 Descending FlightAware
06:19AM -23.2130 -46.8300 158° South 247 284 8,000 -240 Descending FlightAware
06:20AM -23.2440 -46.8170 159° South 225 259 8,000 -300 Level FlightAware
06:20AM -23.2580 -46.8110 159° South 210 242 7,800 -840 Descending FlightAware
06:21AM -23.2850 -46.8000 159° South 207 238 7,400 -900 Descending FlightAware
06:21AM -23.2940 -46.7960 158° South 205 236 7,200 -1,380 Descending FlightAware
06:21AM -23.3210 -46.7840 158° South 205 236 6,500 -1,440 Descending FlightAware
06:22AM -23.3440 -46.7750 160° South 206 237 5,900 -1,320 Descending FlightAware
06:22AM -23.3700 -46.7630 157° South 202 232 5,300 -720 Descending FlightAware
06:23AM -23.3910 -46.7460 143° Southeast 170 196 5,200 -120 Descending FlightAware
06:23AM -23.4050 -46.7320 137° Southeast 170 196 5,200  Level FlightAware
06:24AM -23.4240 -46.7150 141° Southeast 171 197 5,200  Level FlightAware
06:24AM -23.4420 -46.6970 137° Southeast 170 196 5,200  Level FlightAware
06:24AM -23.4490 -46.6890 134° Southeast 162 186 5,200  Level FlightAware
06:25AM -23.4570 -46.6710 116° Southeast 147 169 5,200 -360 Level FlightAware
06:25AM -23.4660 -46.6510 116° Southeast 138 159 4,900 -900 Descending FlightAware
06:26AM -23.4730 -46.6340 114° Southeast 140 161 4,400 -780 Descending FlightAware
06:26AM -23.4750 -46.6250 104° East 145 167 4,400 -180 Level FlightAware
06:27AM -23.4700 -46.6030 76° East 142 163 4,300 -480 Descending FlightAware
06:27AM -23.4660 -46.5860 76° East 144 166 4,000 -780 Descending FlightAware
06:27AM -23.4630 -46.5750 73° East 140 161 3,800 -840 Descending FlightAware
06:28AM -23.4570 -46.5550 72° East 136 157 3,400 -840 Descending FlightAware
06:28AM -23.4550 -46.5450 78° East 137 158 3,200 -780 Descending FlightAware
06:28AM -23.4500 -46.5290 71° East 136 157 2,900 -660 Descending FlightAware
06:29AM -23.4450 -46.5080 75° East 140 161 2,600 -720 Descending FlightAware
06:29AM -23.4420 -46.5000 68° East 141 162 2,400 -900 Descending FlightAware
06:29AM -23.4380 -46.4840 75° East 138 159 2,100 -900 Descending FlightAware